sensor_id;sensor_type;location;lat;lon;timestamp;P1;durP1;ratioP1;P2;durP2;ratioP2
32295;SDS011;18781;51.550;5.418;2023-11-22T00:00:01;23.95;;;14.93;;
32295;SDS011;18781;51.550;5.418;2023-11-22T00:02:28;23.27;;;14.95;;
32295;SDS011;18781;51.550;5.418;2023-11-22T00:04:54;23.02;;;14.90;;
32295;SDS011;18781;51.550;5.418;2023-11-22T00:07:20;28.48;;;16.08;;
32295;SDS011;18781;51.550;5.418;2023-11-22T00:09:46;24.75;;;16.05;;
32295;SDS011;18781;51.550;5.418;2023-11-22T00:12:12;25.08;;;15.43;;
32295;SDS011;18781;51.550;5.418;2023-11-22T00:14:38;24.70;;;15.57;;
32295;SDS011;18781;51.550;5.418;2023-11-22T00:17:04;25.35;;;16.15;;
32295;SDS011;18781;51.550;5.418;2023-11-22T00:19:29;25.50;;;15.65;;
32295;SDS011;18781;51.550;5.418;2023-11-22T00:21:55;24.88;;;15.25;;
32295;SDS011;18781;51.550;5.418;2023-11-22T00:24:21;26.15;;;15.73;;
32295;SDS011;18781;51.550;5.418;2023-11-22T00:26:47;26.63;;;16.55;;
32295;SDS011;18781;51.550;5.418;2023-11-22T00:29:12;30.60;;;14.55;;
32295;SDS011;18781;51.550;5.418;2023-11-22T00:31:38;22.98;;;15.32;;
32295;SDS011;18781;51.550;5.418;2023-11-22T00:34:05;27.67;;;15.70;;
32295;SDS011;18781;51.550;5.418;2023-11-22T00:36:31;25.83;;;16.17;;
32295;SDS011;18781;51.550;5.418;2023-11-22T00:38:57;26.67;;;15.73;;
32295;SDS011;18781;51.550;5.418;2023-11-22T00:41:23;26.02;;;16.23;;
32295;SDS011;18781;51.550;5.418;2023-11-22T00:43:48;24.55;;;15.50;;
32295;SDS011;18781;51.550;5.418;2023-11-22T00:46:14;24.02;;;14.85;;
32295;SDS011;18781;51.550;5.418;2023-11-22T00:48:40;25.15;;;14.48;;
32295;SDS011;18781;51.550;5.418;2023-11-22T00:51:06;29.00;;;15.00;;
32295;SDS011;18781;51.550;5.418;2023-11-22T00:53:37;20.58;;;14.77;;
32295;SDS011;18781;51.550;5.418;2023-11-22T00:56:02;27.65;;;17.60;;
32295;SDS011;18781;51.550;5.418;2023-11-22T00:58:28;31.20;;;19.63;;
32295;SDS011;18781;51.550;5.418;2023-11-22T01:00:54;40.78;;;20.88;;
32295;SDS011;18781;51.550;5.418;2023-11-22T01:03:20;49.72;;;25.33;;
32295;SDS011;18781;51.550;5.418;2023-11-22T01:05:46;57.67;;;28.77;;
32295;SDS011;18781;51.550;5.418;2023-11-22T01:08:11;51.88;;;27.70;;
32295;SDS011;18781;51.550;5.418;2023-11-22T01:10:38;37.80;;;20.65;;
32295;SDS011;18781;51.550;5.418;2023-11-22T01:13:04;32.40;;;19.17;;
32295;SDS011;18781;51.550;5.418;2023-11-22T01:15:30;30.98;;;17.38;;
32295;SDS011;18781;51.550;5.418;2023-11-22T01:17:55;29.85;;;18.02;;
32295;SDS011;18781;51.550;5.418;2023-11-22T01:20:21;28.05;;;16.52;;
32295;SDS011;18781;51.550;5.418;2023-11-22T01:22:48;26.77;;;16.40;;
32295;SDS011;18781;51.550;5.418;2023-11-22T01:25:14;28.45;;;16.33;;
32295;SDS011;18781;51.550;5.418;2023-11-22T01:27:39;25.45;;;16.02;;
32295;SDS011;18781;51.550;5.418;2023-11-22T01:30:05;26.83;;;15.90;;
32295;SDS011;18781;51.550;5.418;2023-11-22T01:32:34;29.70;;;16.17;;
32295;SDS011;18781;51.550;5.418;2023-11-22T01:35:00;27.17;;;16.42;;
32295;SDS011;18781;51.550;5.418;2023-11-22T01:37:26;26.63;;;17.17;;
32295;SDS011;18781;51.550;5.418;2023-11-22T01:39:52;29.58;;;16.45;;
32295;SDS011;18781;51.550;5.418;2023-11-22T01:42:19;28.35;;;17.27;;
32295;SDS011;18781;51.550;5.418;2023-11-22T01:44:45;26.52;;;15.88;;
32295;SDS011;18781;51.550;5.418;2023-11-22T01:47:12;30.20;;;16.73;;
32295;SDS011;18781;51.550;5.418;2023-11-22T01:49:39;28.77;;;17.17;;
32295;SDS011;18781;51.550;5.418;2023-11-22T01:52:05;28.17;;;17.00;;
32295;SDS011;18781;51.550;5.418;2023-11-22T01:54:31;28.98;;;17.20;;
32295;SDS011;18781;51.550;5.418;2023-11-22T01:56:58;27.63;;;17.80;;
32295;SDS011;18781;51.550;5.418;2023-11-22T01:59:24;27.25;;;16.75;;
32295;SDS011;18781;51.550;5.418;2023-11-22T02:01:53;26.83;;;17.50;;
32295;SDS011;18781;51.550;5.418;2023-11-22T02:04:19;27.00;;;16.50;;
32295;SDS011;18781;51.550;5.418;2023-11-22T02:06:45;24.58;;;16.67;;
32295;SDS011;18781;51.550;5.418;2023-11-22T02:09:12;27.75;;;16.67;;
32295;SDS011;18781;51.550;5.418;2023-11-22T02:11:40;27.87;;;16.23;;
32295;SDS011;18781;51.550;5.418;2023-11-22T02:14:07;26.75;;;16.42;;
32295;SDS011;18781;51.550;5.418;2023-11-22T02:16:34;27.08;;;17.13;;
32295;SDS011;18781;51.550;5.418;2023-11-22T02:19:01;29.13;;;16.23;;
32295;SDS011;18781;51.550;5.418;2023-11-22T02:21:27;26.10;;;16.35;;
32295;SDS011;18781;51.550;5.418;2023-11-22T02:23:52;27.10;;;17.27;;
32295;SDS011;18781;51.550;5.418;2023-11-22T02:26:18;26.98;;;16.80;;
32295;SDS011;18781;51.550;5.418;2023-11-22T02:28:44;29.08;;;17.20;;
32295;SDS011;18781;51.550;5.418;2023-11-22T02:31:09;27.60;;;16.42;;
32295;SDS011;18781;51.550;5.418;2023-11-22T02:33:35;26.40;;;16.58;;
32295;SDS011;18781;51.550;5.418;2023-11-22T02:36:01;26.63;;;16.75;;
32295;SDS011;18781;51.550;5.418;2023-11-22T02:38:29;25.55;;;16.73;;
32295;SDS011;18781;51.550;5.418;2023-11-22T02:40:55;24.20;;;15.38;;
32295;SDS011;18781;51.550;5.418;2023-11-22T02:43:21;24.52;;;14.88;;
32295;SDS011;18781;51.550;5.418;2023-11-22T02:45:48;27.00;;;16.33;;
32295;SDS011;18781;51.550;5.418;2023-11-22T02:48:13;22.80;;;15.05;;
32295;SDS011;18781;51.550;5.418;2023-11-22T02:50:39;24.75;;;16.10;;
32295;SDS011;18781;51.550;5.418;2023-11-22T02:53:08;28.05;;;17.02;;
32295;SDS011;18781;51.550;5.418;2023-11-22T02:55:34;24.10;;;15.45;;
32295;SDS011;18781;51.550;5.418;2023-11-22T02:57:59;24.10;;;15.43;;
32295;SDS011;18781;51.550;5.418;2023-11-22T03:00:25;24.63;;;15.55;;
32295;SDS011;18781;51.550;5.418;2023-11-22T03:02:50;24.75;;;15.02;;
32295;SDS011;18781;51.550;5.418;2023-11-22T03:05:19;25.20;;;15.75;;
32295;SDS011;18781;51.550;5.418;2023-11-22T03:07:45;23.08;;;14.68;;
32295;SDS011;18781;51.550;5.418;2023-11-22T03:10:11;27.10;;;15.50;;
32295;SDS011;18781;51.550;5.418;2023-11-22T03:12:37;22.55;;;15.02;;
32295;SDS011;18781;51.550;5.418;2023-11-22T03:15:03;24.08;;;14.73;;
32295;SDS011;18781;51.550;5.418;2023-11-22T03:17:30;22.83;;;14.75;;
32295;SDS011;18781;51.550;5.418;2023-11-22T03:19:57;21.75;;;14.23;;
32295;SDS011;18781;51.550;5.418;2023-11-22T03:22:26;29.58;;;14.35;;
32295;SDS011;18781;51.550;5.418;2023-11-22T03:24:55;22.05;;;13.88;;
32295;SDS011;18781;51.550;5.418;2023-11-22T03:27:21;21.10;;;13.80;;
32295;SDS011;18781;51.550;5.418;2023-11-22T03:29:48;20.00;;;12.70;;
32295;SDS011;18781;51.550;5.418;2023-11-22T03:32:13;19.63;;;13.15;;
32295;SDS011;18781;51.550;5.418;2023-11-22T03:34:39;22.90;;;13.30;;
32295;SDS011;18781;51.550;5.418;2023-11-22T03:37:05;21.60;;;12.98;;
32295;SDS011;18781;51.550;5.418;2023-11-22T03:39:30;21.10;;;12.48;;
32295;SDS011;18781;51.550;5.418;2023-11-22T03:41:56;21.73;;;13.82;;
32295;SDS011;18781;51.550;5.418;2023-11-22T03:44:22;19.70;;;12.23;;
32295;SDS011;18781;51.550;5.418;2023-11-22T03:46:48;18.38;;;12.38;;
32295;SDS011;18781;51.550;5.418;2023-11-22T03:49:13;18.42;;;11.57;;
32295;SDS011;18781;51.550;5.418;2023-11-22T03:51:39;17.83;;;11.40;;
32295;SDS011;18781;51.550;5.418;2023-11-22T03:54:07;19.95;;;11.27;;
32295;SDS011;18781;51.550;5.418;2023-11-22T03:56:35;17.90;;;12.10;;
32295;SDS011;18781;51.550;5.418;2023-11-22T03:59:00;21.00;;;13.10;;
32295;SDS011;18781;51.550;5.418;2023-11-22T04:01:26;22.00;;;12.73;;
32295;SDS011;18781;51.550;5.418;2023-11-22T04:03:51;19.98;;;12.05;;
32295;SDS011;18781;51.550;5.418;2023-11-22T04:06:18;23.15;;;12.25;;
32295;SDS011;18781;51.550;5.418;2023-11-22T04:08:44;20.63;;;13.38;;
32295;SDS011;18781;51.550;5.418;2023-11-22T04:11:11;25.02;;;13.77;;
32295;SDS011;18781;51.550;5.418;2023-11-22T04:13:38;25.35;;;14.82;;
32295;SDS011;18781;51.550;5.418;2023-11-22T04:16:04;22.88;;;14.27;;
32295;SDS011;18781;51.550;5.418;2023-11-22T04:18:33;22.20;;;13.48;;
32295;SDS011;18781;51.550;5.418;2023-11-22T04:21:03;22.75;;;13.27;;
32295;SDS011;18781;51.550;5.418;2023-11-22T04:23:30;20.77;;;12.98;;
32295;SDS011;18781;51.550;5.418;2023-11-22T04:25:56;18.98;;;12.32;;
32295;SDS011;18781;51.550;5.418;2023-11-22T04:28:23;19.80;;;12.63;;
32295;SDS011;18781;51.550;5.418;2023-11-22T04:30:50;18.95;;;12.73;;
32295;SDS011;18781;51.550;5.418;2023-11-22T04:33:17;21.88;;;12.82;;
32295;SDS011;18781;51.550;5.418;2023-11-22T04:35:42;21.17;;;12.80;;
32295;SDS011;18781;51.550;5.418;2023-11-22T04:38:08;22.80;;;13.25;;
32295;SDS011;18781;51.550;5.418;2023-11-22T04:40:34;21.17;;;13.65;;
32295;SDS011;18781;51.550;5.418;2023-11-22T04:42:59;20.95;;;13.38;;
32295;SDS011;18781;51.550;5.418;2023-11-22T04:45:25;21.60;;;12.77;;
32295;SDS011;18781;51.550;5.418;2023-11-22T04:47:51;19.45;;;12.07;;
32295;SDS011;18781;51.550;5.418;2023-11-22T04:50:16;20.20;;;12.27;;
32295;SDS011;18781;51.550;5.418;2023-11-22T04:52:42;20.05;;;12.35;;
32295;SDS011;18781;51.550;5.418;2023-11-22T04:55:08;22.75;;;11.85;;
32295;SDS011;18781;51.550;5.418;2023-11-22T04:57:34;19.52;;;12.32;;
32295;SDS011;18781;51.550;5.418;2023-11-22T04:59:59;19.27;;;11.85;;
32295;SDS011;18781;51.550;5.418;2023-11-22T05:02:25;19.02;;;11.93;;
32295;SDS011;18781;51.550;5.418;2023-11-22T05:04:52;19.88;;;12.05;;
32295;SDS011;18781;51.550;5.418;2023-11-22T05:07:17;18.83;;;11.88;;
32295;SDS011;18781;51.550;5.418;2023-11-22T05:09:46;19.23;;;11.80;;
32295;SDS011;18781;51.550;5.418;2023-11-22T05:12:12;26.17;;;11.60;;
32295;SDS011;18781;51.550;5.418;2023-11-22T05:14:37;19.40;;;11.43;;
32295;SDS011;18781;51.550;5.418;2023-11-22T05:17:04;18.67;;;11.77;;
32295;SDS011;18781;51.550;5.418;2023-11-22T05:19:29;20.23;;;12.18;;
32295;SDS011;18781;51.550;5.418;2023-11-22T05:21:56;20.00;;;12.85;;
32295;SDS011;18781;51.550;5.418;2023-11-22T05:24:22;17.17;;;11.63;;
32295;SDS011;18781;51.550;5.418;2023-11-22T05:26:47;21.75;;;12.82;;
32295;SDS011;18781;51.550;5.418;2023-11-22T05:29:13;22.25;;;12.98;;
32295;SDS011;18781;51.550;5.418;2023-11-22T05:31:39;27.00;;;14.25;;
32295;SDS011;18781;51.550;5.418;2023-11-22T05:34:04;20.70;;;12.90;;
32295;SDS011;18781;51.550;5.418;2023-11-22T05:36:30;23.35;;;13.85;;
32295;SDS011;18781;51.550;5.418;2023-11-22T05:38:55;27.65;;;14.55;;
32295;SDS011;18781;51.550;5.418;2023-11-22T05:41:24;28.13;;;14.13;;
32295;SDS011;18781;51.550;5.418;2023-11-22T05:43:51;28.45;;;14.30;;
32295;SDS011;18781;51.550;5.418;2023-11-22T05:46:17;22.15;;;13.57;;
32295;SDS011;18781;51.550;5.418;2023-11-22T05:48:47;23.58;;;13.38;;
32295;SDS011;18781;51.550;5.418;2023-11-22T05:51:13;26.95;;;14.43;;
32295;SDS011;18781;51.550;5.418;2023-11-22T05:53:40;26.98;;;14.50;;
32295;SDS011;18781;51.550;5.418;2023-11-22T05:56:06;22.38;;;13.35;;
32295;SDS011;18781;51.550;5.418;2023-11-22T05:58:33;27.13;;;13.95;;
32295;SDS011;18781;51.550;5.418;2023-11-22T06:01:03;26.23;;;13.40;;
32295;SDS011;18781;51.550;5.418;2023-11-22T06:03:32;26.52;;;14.13;;
32295;SDS011;18781;51.550;5.418;2023-11-22T06:05:58;24.65;;;14.27;;
32295;SDS011;18781;51.550;5.418;2023-11-22T06:08:24;24.80;;;13.98;;
32295;SDS011;18781;51.550;5.418;2023-11-22T06:10:50;25.63;;;13.48;;
32295;SDS011;18781;51.550;5.418;2023-11-22T06:13:16;26.25;;;14.05;;
32295;SDS011;18781;51.550;5.418;2023-11-22T06:15:43;28.15;;;15.32;;
32295;SDS011;18781;51.550;5.418;2023-11-22T06:18:08;30.63;;;15.82;;
32295;SDS011;18781;51.550;5.418;2023-11-22T06:20:34;27.58;;;15.25;;
32295;SDS011;18781;51.550;5.418;2023-11-22T06:23:00;28.33;;;16.13;;
32295;SDS011;18781;51.550;5.418;2023-11-22T06:25:25;26.83;;;14.95;;
32295;SDS011;18781;51.550;5.418;2023-11-22T06:27:52;31.90;;;16.23;;
32295;SDS011;18781;51.550;5.418;2023-11-22T06:30:17;25.23;;;15.05;;
32295;SDS011;18781;51.550;5.418;2023-11-22T06:32:43;30.48;;;15.90;;
32295;SDS011;18781;51.550;5.418;2023-11-22T06:35:09;24.58;;;15.20;;
32295;SDS011;18781;51.550;5.418;2023-11-22T06:37:39;25.83;;;15.65;;
32295;SDS011;18781;51.550;5.418;2023-11-22T06:40:05;26.20;;;15.50;;
32295;SDS011;18781;51.550;5.418;2023-11-22T06:42:31;26.45;;;14.98;;
32295;SDS011;18781;51.550;5.418;2023-11-22T06:44:58;27.33;;;15.10;;
32295;SDS011;18781;51.550;5.418;2023-11-22T06:47:25;24.83;;;15.55;;
32295;SDS011;18781;51.550;5.418;2023-11-22T06:49:52;24.70;;;15.52;;
32295;SDS011;18781;51.550;5.418;2023-11-22T06:52:18;28.52;;;15.32;;
32295;SDS011;18781;51.550;5.418;2023-11-22T06:54:44;23.13;;;14.63;;
32295;SDS011;18781;51.550;5.418;2023-11-22T06:57:09;26.70;;;15.48;;
32295;SDS011;18781;51.550;5.418;2023-11-22T06:59:35;26.45;;;15.32;;
32295;SDS011;18781;51.550;5.418;2023-11-22T07:02:00;23.73;;;14.88;;
32295;SDS011;18781;51.550;5.418;2023-11-22T07:04:26;26.10;;;15.73;;
32295;SDS011;18781;51.550;5.418;2023-11-22T07:06:52;25.73;;;15.52;;
32295;SDS011;18781;51.550;5.418;2023-11-22T07:09:18;29.60;;;17.10;;
32295;SDS011;18781;51.550;5.418;2023-11-22T07:11:44;33.72;;;18.50;;
32295;SDS011;18781;51.550;5.418;2023-11-22T07:14:10;28.85;;;16.15;;
32295;SDS011;18781;51.550;5.418;2023-11-22T07:16:35;28.42;;;16.67;;
32295;SDS011;18781;51.550;5.418;2023-11-22T07:19:02;34.25;;;17.85;;
32295;SDS011;18781;51.550;5.418;2023-11-22T07:21:31;38.22;;;19.08;;
32295;SDS011;18781;51.550;5.418;2023-11-22T07:23:57;41.65;;;18.80;;
32295;SDS011;18781;51.550;5.418;2023-11-22T07:26:26;60.53;;;19.70;;
32295;SDS011;18781;51.550;5.418;2023-11-22T07:28:52;37.28;;;18.88;;
32295;SDS011;18781;51.550;5.418;2023-11-22T07:31:18;36.10;;;19.38;;
32295;SDS011;18781;51.550;5.418;2023-11-22T07:33:44;41.80;;;18.20;;
32295;SDS011;18781;51.550;5.418;2023-11-22T07:36:11;30.42;;;19.02;;
32295;SDS011;18781;51.550;5.418;2023-11-22T07:38:40;44.05;;;18.60;;
32295;SDS011;18781;51.550;5.418;2023-11-22T07:41:06;33.50;;;18.15;;
32295;SDS011;18781;51.550;5.418;2023-11-22T07:43:35;39.92;;;16.50;;
32295;SDS011;18781;51.550;5.418;2023-11-22T07:46:04;27.60;;;16.95;;
32295;SDS011;18781;51.550;5.418;2023-11-22T07:48:40;30.02;;;17.60;;
32295;SDS011;18781;51.550;5.418;2023-11-22T07:51:06;27.30;;;16.80;;
32295;SDS011;18781;51.550;5.418;2023-11-22T07:53:33;38.63;;;17.45;;
32295;SDS011;18781;51.550;5.418;2023-11-22T07:56:00;28.67;;;17.55;;
32295;SDS011;18781;51.550;5.418;2023-11-22T07:58:29;55.08;;;18.40;;
32295;SDS011;18781;51.550;5.418;2023-11-22T08:00:59;35.15;;;18.17;;
32295;SDS011;18781;51.550;5.418;2023-11-22T08:03:25;33.50;;;16.95;;
32295;SDS011;18781;51.550;5.418;2023-11-22T08:05:51;43.80;;;17.98;;
32295;SDS011;18781;51.550;5.418;2023-11-22T08:08:20;33.30;;;18.52;;
32295;SDS011;18781;51.550;5.418;2023-11-22T08:10:49;37.25;;;19.17;;
32295;SDS011;18781;51.550;5.418;2023-11-22T08:13:18;30.35;;;18.77;;
32295;SDS011;18781;51.550;5.418;2023-11-22T08:15:44;31.67;;;18.77;;
32295;SDS011;18781;51.550;5.418;2023-11-22T08:18:11;31.75;;;18.85;;
32295;SDS011;18781;51.550;5.418;2023-11-22T08:20:37;36.78;;;19.15;;
32295;SDS011;18781;51.550;5.418;2023-11-22T08:23:03;33.53;;;19.45;;
32295;SDS011;18781;51.550;5.418;2023-11-22T08:25:31;43.30;;;19.50;;
32295;SDS011;18781;51.550;5.418;2023-11-22T08:27:56;43.38;;;20.85;;
32295;SDS011;18781;51.550;5.418;2023-11-22T08:30:22;38.47;;;19.95;;
32295;SDS011;18781;51.550;5.418;2023-11-22T08:32:48;34.33;;;19.92;;
32295;SDS011;18781;51.550;5.418;2023-11-22T08:35:18;47.53;;;21.67;;
32295;SDS011;18781;51.550;5.418;2023-11-22T08:37:48;41.85;;;21.77;;
32295;SDS011;18781;51.550;5.418;2023-11-22T08:40:15;36.08;;;21.13;;
32295;SDS011;18781;51.550;5.418;2023-11-22T08:42:45;36.40;;;20.88;;
32295;SDS011;18781;51.550;5.418;2023-11-22T08:45:11;37.75;;;20.38;;
32295;SDS011;18781;51.550;5.418;2023-11-22T08:47:37;38.58;;;21.67;;
32295;SDS011;18781;51.550;5.418;2023-11-22T08:50:04;42.55;;;22.50;;
32295;SDS011;18781;51.550;5.418;2023-11-22T08:52:38;41.20;;;22.98;;
32295;SDS011;18781;51.550;5.418;2023-11-22T08:55:05;46.28;;;23.55;;
32295;SDS011;18781;51.550;5.418;2023-11-22T08:57:32;40.88;;;22.00;;
32295;SDS011;18781;51.550;5.418;2023-11-22T09:00:02;43.63;;;22.90;;
32295;SDS011;18781;51.550;5.418;2023-11-22T09:02:35;43.42;;;23.23;;
32295;SDS011;18781;51.550;5.418;2023-11-22T09:05:02;45.10;;;24.15;;
32295;SDS011;18781;51.550;5.418;2023-11-22T09:07:34;48.42;;;24.65;;
32295;SDS011;18781;51.550;5.418;2023-11-22T09:10:01;55.33;;;24.25;;
32295;SDS011;18781;51.550;5.418;2023-11-22T09:12:34;50.90;;;24.98;;
32295;SDS011;18781;51.550;5.418;2023-11-22T09:15:01;53.58;;;25.27;;
32295;SDS011;18781;51.550;5.418;2023-11-22T09:17:28;49.85;;;26.70;;
32295;SDS011;18781;51.550;5.418;2023-11-22T09:19:54;50.05;;;26.63;;
32295;SDS011;18781;51.550;5.418;2023-11-22T09:22:21;55.38;;;25.90;;
32295;SDS011;18781;51.550;5.418;2023-11-22T09:24:46;59.13;;;27.77;;
32295;SDS011;18781;51.550;5.418;2023-11-22T09:27:12;58.92;;;27.55;;
32295;SDS011;18781;51.550;5.418;2023-11-22T09:29:41;56.03;;;27.90;;
32295;SDS011;18781;51.550;5.418;2023-11-22T09:32:07;55.90;;;27.92;;
32295;SDS011;18781;51.550;5.418;2023-11-22T09:34:33;58.45;;;28.25;;
32295;SDS011;18781;51.550;5.418;2023-11-22T09:37:00;59.75;;;29.38;;
32295;SDS011;18781;51.550;5.418;2023-11-22T09:39:25;59.03;;;29.75;;
32295;SDS011;18781;51.550;5.418;2023-11-22T09:41:52;65.28;;;30.40;;
32295;SDS011;18781;51.550;5.418;2023-11-22T09:44:19;62.22;;;32.03;;
32295;SDS011;18781;51.550;5.418;2023-11-22T09:46:46;67.53;;;31.55;;
32295;SDS011;18781;51.550;5.418;2023-11-22T09:49:15;68.28;;;32.80;;
32295;SDS011;18781;51.550;5.418;2023-11-22T09:51:47;63.85;;;30.33;;
32295;SDS011;18781;51.550;5.418;2023-11-22T09:56:43;66.97;;;31.15;;
32295;SDS011;18781;51.550;5.418;2023-11-22T09:59:15;69.05;;;31.45;;
32295;SDS011;18781;51.550;5.418;2023-11-22T10:01:43;70.07;;;31.55;;
32295;SDS011;18781;51.550;5.418;2023-11-22T10:04:08;73.75;;;34.58;;
32295;SDS011;18781;51.550;5.418;2023-11-22T10:06:34;73.63;;;34.72;;
32295;SDS011;18781;51.550;5.418;2023-11-22T10:09:03;74.63;;;34.72;;
32295;SDS011;18781;51.550;5.418;2023-11-22T10:11:34;79.88;;;36.05;;
32295;SDS011;18781;51.550;5.418;2023-11-22T10:14:05;73.18;;;34.15;;
32295;SDS011;18781;51.550;5.418;2023-11-22T10:16:30;79.97;;;34.83;;
32295;SDS011;18781;51.550;5.418;2023-11-22T10:18:56;76.43;;;34.92;;
32295;SDS011;18781;51.550;5.418;2023-11-22T10:21:27;76.40;;;33.95;;
32295;SDS011;18781;51.550;5.418;2023-11-22T10:23:57;76.90;;;34.72;;
32295;SDS011;18781;51.550;5.418;2023-11-22T10:26:29;75.00;;;34.13;;
32295;SDS011;18781;51.550;5.418;2023-11-22T10:28:56;78.72;;;34.15;;
32295;SDS011;18781;51.550;5.418;2023-11-22T10:31:22;78.07;;;34.22;;
32295;SDS011;18781;51.550;5.418;2023-11-22T10:33:49;75.78;;;33.97;;
32295;SDS011;18781;51.550;5.418;2023-11-22T10:36:15;70.47;;;32.80;;
32295;SDS011;18781;51.550;5.418;2023-11-22T10:38:45;79.28;;;34.65;;
32295;SDS011;18781;51.550;5.418;2023-11-22T10:43:38;88.60;;;33.47;;
32295;SDS011;18781;51.550;5.418;2023-11-22T10:46:04;79.38;;;34.30;;
32295;SDS011;18781;51.550;5.418;2023-11-22T10:48:31;78.35;;;34.42;;
32295;SDS011;18781;51.550;5.418;2023-11-22T10:51:01;82.28;;;35.42;;
32295;SDS011;18781;51.550;5.418;2023-11-22T10:53:34;87.95;;;36.90;;
32295;SDS011;18781;51.550;5.418;2023-11-22T10:56:16;78.65;;;35.90;;
32295;SDS011;18781;51.550;5.418;2023-11-22T11:01:17;82.53;;;35.95;;
32295;SDS011;18781;51.550;5.418;2023-11-22T11:03:54;83.05;;;35.33;;
32295;SDS011;18781;51.550;5.418;2023-11-22T11:06:31;86.80;;;36.63;;
32295;SDS011;18781;51.550;5.418;2023-11-22T11:09:00;79.07;;;35.30;;
32295;SDS011;18781;51.550;5.418;2023-11-22T11:11:30;84.03;;;35.42;;
32295;SDS011;18781;51.550;5.418;2023-11-22T11:13:58;85.82;;;36.20;;
32295;SDS011;18781;51.550;5.418;2023-11-22T11:16:26;87.22;;;36.10;;
32295;SDS011;18781;51.550;5.418;2023-11-22T11:18:53;88.07;;;38.38;;
32295;SDS011;18781;51.550;5.418;2023-11-22T11:21:19;96.88;;;37.40;;
32295;SDS011;18781;51.550;5.418;2023-11-22T11:23:45;92.55;;;38.38;;
32295;SDS011;18781;51.550;5.418;2023-11-22T11:26:20;97.53;;;42.13;;
32295;SDS011;18781;51.550;5.418;2023-11-22T11:28:47;99.05;;;40.65;;
32295;SDS011;18781;51.550;5.418;2023-11-22T11:31:14;93.00;;;40.20;;
32295;SDS011;18781;51.550;5.418;2023-11-22T11:36:15;94.88;;;40.35;;
32295;SDS011;18781;51.550;5.418;2023-11-22T11:39:06;99.65;;;41.25;;
32295;SDS011;18781;51.550;5.418;2023-11-22T11:41:34;85.50;;;39.58;;
32295;SDS011;18781;51.550;5.418;2023-11-22T11:44:06;94.60;;;41.33;;
32295;SDS011;18781;51.550;5.418;2023-11-22T11:46:33;98.35;;;42.40;;
32295;SDS011;18781;51.550;5.418;2023-11-22T11:48:59;101.68;;;43.38;;
32295;SDS011;18781;51.550;5.418;2023-11-22T11:51:26;96.70;;;42.08;;
32295;SDS011;18781;51.550;5.418;2023-11-22T11:53:53;93.40;;;41.00;;
32295;SDS011;18781;51.550;5.418;2023-11-22T11:56:19;96.00;;;41.67;;
32295;SDS011;18781;51.550;5.418;2023-11-22T11:58:46;99.40;;;42.28;;
32295;SDS011;18781;51.550;5.418;2023-11-22T12:01:15;90.13;;;41.87;;
32295;SDS011;18781;51.550;5.418;2023-11-22T12:03:41;90.72;;;40.08;;
32295;SDS011;18781;51.550;5.418;2023-11-22T12:06:08;89.30;;;39.50;;
32295;SDS011;18781;51.550;5.418;2023-11-22T12:08:34;86.78;;;39.65;;
32295;SDS011;18781;51.550;5.418;2023-11-22T12:11:04;82.38;;;39.60;;
32295;SDS011;18781;51.550;5.418;2023-11-22T12:13:33;77.15;;;37.20;;
32295;SDS011;18781;51.550;5.418;2023-11-22T12:16:00;77.25;;;36.58;;
32295;SDS011;18781;51.550;5.418;2023-11-22T12:20:57;79.13;;;36.45;;
32295;SDS011;18781;51.550;5.418;2023-11-22T12:23:24;79.32;;;36.90;;
32295;SDS011;18781;51.550;5.418;2023-11-22T12:25:56;74.03;;;35.22;;
32295;SDS011;18781;51.550;5.418;2023-11-22T12:28:28;65.53;;;32.97;;
32295;SDS011;18781;51.550;5.418;2023-11-22T12:31:06;66.70;;;33.40;;
32295;SDS011;18781;51.550;5.418;2023-11-22T12:33:35;68.28;;;30.92;;
32295;SDS011;18781;51.550;5.418;2023-11-22T12:36:02;59.97;;;28.95;;
32295;SDS011;18781;51.550;5.418;2023-11-22T12:38:29;59.88;;;29.23;;
32295;SDS011;18781;51.550;5.418;2023-11-22T12:40:56;61.72;;;30.02;;
32295;SDS011;18781;51.550;5.418;2023-11-22T12:43:22;59.60;;;29.33;;
32295;SDS011;18781;51.550;5.418;2023-11-22T12:45:58;58.45;;;29.27;;
32295;SDS011;18781;51.550;5.418;2023-11-22T12:48:38;73.53;;;34.25;;
32295;SDS011;18781;51.550;5.418;2023-11-22T12:51:14;68.53;;;33.58;;
32295;SDS011;18781;51.550;5.418;2023-11-22T12:53:41;63.95;;;31.30;;
32295;SDS011;18781;51.550;5.418;2023-11-22T12:56:07;69.75;;;31.75;;
32295;SDS011;18781;51.550;5.418;2023-11-22T12:58:33;68.18;;;30.55;;
32295;SDS011;18781;51.550;5.418;2023-11-22T13:00:59;68.70;;;31.95;;
32295;SDS011;18781;51.550;5.418;2023-11-22T13:03:25;72.65;;;32.63;;
32295;SDS011;18781;51.550;5.418;2023-11-22T13:05:51;65.28;;;30.38;;
32295;SDS011;18781;51.550;5.418;2023-11-22T13:08:17;70.43;;;32.95;;
32295;SDS011;18781;51.550;5.418;2023-11-22T13:10:44;68.75;;;32.15;;
32295;SDS011;18781;51.550;5.418;2023-11-22T13:13:18;68.18;;;31.65;;
32295;SDS011;18781;51.550;5.418;2023-11-22T13:15:47;67.40;;;32.22;;
32295;SDS011;18781;51.550;5.418;2023-11-22T13:18:14;64.72;;;31.20;;
32295;SDS011;18781;51.550;5.418;2023-11-22T13:20:41;67.68;;;31.40;;
32295;SDS011;18781;51.550;5.418;2023-11-22T13:23:07;76.65;;;33.85;;
32295;SDS011;18781;51.550;5.418;2023-11-22T13:25:34;74.55;;;34.70;;
32295;SDS011;18781;51.550;5.418;2023-11-22T13:27:59;72.78;;;35.10;;
32295;SDS011;18781;51.550;5.418;2023-11-22T13:30:25;81.05;;;35.88;;
32295;SDS011;18781;51.550;5.418;2023-11-22T13:32:55;72.80;;;34.63;;
32295;SDS011;18781;51.550;5.418;2023-11-22T13:35:27;77.85;;;35.50;;
32295;SDS011;18781;51.550;5.418;2023-11-22T13:38:00;71.57;;;35.53;;
32295;SDS011;18781;51.550;5.418;2023-11-22T13:40:27;74.43;;;37.55;;
32295;SDS011;18781;51.550;5.418;2023-11-22T13:42:57;84.78;;;40.35;;
32295;SDS011;18781;51.550;5.418;2023-11-22T13:45:23;80.70;;;38.72;;
32295;SDS011;18781;51.550;5.418;2023-11-22T13:47:49;90.93;;;43.63;;
32295;SDS011;18781;51.550;5.418;2023-11-22T13:52:46;95.55;;;43.38;;
32295;SDS011;18781;51.550;5.418;2023-11-22T13:55:13;92.47;;;44.88;;
32295;SDS011;18781;51.550;5.418;2023-11-22T13:57:40;94.72;;;45.15;;
32295;SDS011;18781;51.550;5.418;2023-11-22T14:00:06;89.90;;;42.28;;
32295;SDS011;18781;51.550;5.418;2023-11-22T14:02:46;89.13;;;42.13;;
32295;SDS011;18781;51.550;5.418;2023-11-22T14:05:13;91.47;;;39.67;;
32295;SDS011;18781;51.550;5.418;2023-11-22T14:07:40;89.55;;;40.65;;
32295;SDS011;18781;51.550;5.418;2023-11-22T14:10:07;86.88;;;39.33;;
32295;SDS011;18781;51.550;5.418;2023-11-22T14:12:34;88.93;;;38.80;;
32295;SDS011;18781;51.550;5.418;2023-11-22T14:15:00;87.07;;;39.55;;
32295;SDS011;18781;51.550;5.418;2023-11-22T14:17:25;88.65;;;39.45;;
32295;SDS011;18781;51.550;5.418;2023-11-22T14:19:54;87.07;;;38.75;;
32295;SDS011;18781;51.550;5.418;2023-11-22T14:24:47;93.85;;;38.72;;
32295;SDS011;18781;51.550;5.418;2023-11-22T14:27:13;88.20;;;39.20;;
32295;SDS011;18781;51.550;5.418;2023-11-22T14:29:39;96.20;;;41.97;;
32295;SDS011;18781;51.550;5.418;2023-11-22T14:32:05;92.82;;;40.80;;
32295;SDS011;18781;51.550;5.418;2023-11-22T14:34:32;99.63;;;42.55;;
32295;SDS011;18781;51.550;5.418;2023-11-22T14:36:57;91.43;;;41.95;;